Time;durP1;ratioP1;P1;durP2;ratioP2;P2;SDS_P1;SDS_P2;PMS_P1;PMS_P2;Temp;Humidity;BMP_temperature;BMP_pressure;BME280_temperature;BME280_humidity;BME280_pressure;Samples;Min_cycle;Max_cycle;Signal;HPM_P1;HPM_P2
2023/07/18 00:01:20;;;;;;;1.42;1.02;;;;;;;17.02;80.87;99143.09;4143385;28;20663;-46
2023/07/18 00:03:22;;;;;;;2.90;0.77;;;;;;;16.98;81.54;99147.53;4138899;28;20225;-48
2023/07/18 00:05:24;;;;;;;1.92;1.00;;;;;;;16.85;82.03;99147.22;4137435;28;21232;-48
2023/07/18 00:07:26;;;;;;;1.05;0.80;;;;;;;16.89;82.50;99143.63;4141258;28;20218;-48
2023/07/18 00:09:28;;;;;;;1.48;0.95;;;;;;;16.92;82.74;99143.09;4138178;28;20217;-47
2023/07/18 00:11:30;;;;;;;2.55;1.02;;;;;;;16.92;83.23;99143.09;4139714;28;20940;-48
2023/07/18 00:13:32;;;;;;;3.38;1.00;;;;;;;16.35;85.49;99147.94;4139288;28;20603;-46
2023/07/18 00:15:33;;;;;;;0.88;0.70;;;;;;;16.21;85.77;99143.16;4138382;28;20228;-48
2023/07/18 00:17:36;;;;;;;2.75;1.20;;;;;;;15.90;86.47;99150.50;4141176;28;20237;-46
2023/07/18 00:19:39;;;;;;;2.53;0.93;;;;;;;16.09;86.31;99157.22;4135405;28;20228;-47
2023/07/18 00:21:41;;;;;;;1.10;0.80;;;;;;;16.19;85.65;99154.50;4139897;28;20791;-46
2023/07/18 00:23:43;;;;;;;2.53;1.30;;;;;;;16.34;85.27;99157.31;4144549;28;20235;-46
2023/07/18 00:25:45;;;;;;;16.77;1.33;;;;;;;16.37;84.78;99156.75;4142908;28;20205;-48
2023/07/18 00:27:49;;;;;;;1.30;0.90;;;;;;;16.39;84.11;99160.13;4150919;28;20226;-47
2023/07/18 00:29:51;;;;;;;1.92;0.95;;;;;;;16.43;83.97;99172.28;4137445;28;20201;-47
2023/07/18 00:31:53;;;;;;;2.22;1.17;;;;;;;16.51;83.92;99174.56;4135034;28;20213;-47
2023/07/18 00:33:55;;;;;;;2.85;0.93;;;;;;;16.56;83.82;99171.78;4134430;28;20209;-48
2023/07/18 00:35:57;;;;;;;1.98;1.02;;;;;;;16.59;84.05;99162.13;4135130;28;20205;-46
2023/07/18 00:37:58;;;;;;;2.80;1.00;;;;;;;16.57;84.23;99161.56;4135801;28;20229;-47
2023/07/18 00:40:00;;;;;;;2.35;1.00;;;;;;;16.49;84.26;99164.88;4143189;28;20209;-47
2023/07/18 00:42:02;;;;;;;4.72;1.08;;;;;;;16.47;84.78;99167.91;4142367;28;20209;-46
2023/07/18 00:44:04;;;;;;;1.33;0.95;;;;;;;16.47;84.89;99167.03;4142738;28;20759;-46
2023/07/18 00:46:08;;;;;;;4.20;0.80;;;;;;;16.51;85.03;99162.66;4136625;28;20214;-48
2023/07/18 00:48:10;;;;;;;2.03;1.00;;;;;;;16.58;85.59;99154.94;4132177;28;20225;-48
2023/07/18 00:50:17;;;;;;;3.28;1.00;;;;;;;16.52;85.32;99158.78;4133919;28;20723;-47
2023/07/18 00:52:21;;;;;;;2.90;1.10;;;;;;;16.48;84.96;99152.97;4149127;28;20210;-48
2023/07/18 00:54:23;;;;;;;3.80;1.08;;;;;;;16.44;84.77;99151.84;4135769;28;20667;-47
2023/07/18 00:56:24;;;;;;;3.35;0.98;;;;;;;16.36;84.72;99151.53;4136335;28;20264;-47
2023/07/18 00:58:28;;;;;;;0.73;0.70;;;;;;;16.32;85.15;99145.72;4125188;28;20258;-46
2023/07/18 01:00:30;;;;;;;1.10;0.68;;;;;;;16.34;85.44;99145.44;4150471;28;20311;-46
2023/07/18 01:02:31;;;;;;;1.75;1.17;;;;;;;16.28;85.74;99152.88;4133914;28;20249;-46
2023/07/18 01:04:33;;;;;;;1.35;0.90;;;;;;;16.30;85.59;99150.66;4126256;28;20272;-46
2023/07/18 01:06:36;;;;;;;2.05;1.13;;;;;;;16.29;85.63;99148.19;4151013;28;20216;-46
2023/07/18 01:08:39;;;;;;;1.95;0.90;;;;;;;16.23;85.45;99150.09;4140443;28;20232;-46
2023/07/18 01:10:41;;;;;;;1.13;0.90;;;;;;;16.18;85.42;99139.06;4135854;28;20264;-47
2023/07/18 01:12:44;;;;;;;5.00;1.17;;;;;;;16.14;85.76;99148.97;4142529;28;20200;-48
2023/07/18 01:14:45;;;;;;;2.67;1.10;;;;;;;16.06;85.81;99149.50;4149101;28;20209;-47
2023/07/18 01:16:47;;;;;;;2.03;1.00;;;;;;;16.01;85.92;99146.69;4133757;28;20210;-47
2023/07/18 01:18:49;;;;;;;1.88;0.90;;;;;;;15.97;85.98;99153.03;4139030;28;20316;-48
2023/07/18 01:20:52;;;;;;;2.55;1.30;;;;;;;15.89;85.85;99154.38;4134766;28;20212;-47
2023/07/18 01:22:56;;;;;;;3.10;1.17;;;;;;;15.89;85.98;99150.78;4142804;28;20283;-48
2023/07/18 01:24:58;;;;;;;1.38;1.00;;;;;;;15.91;86.34;99141.13;4134229;28;20221;-46
2023/07/18 01:27:00;;;;;;;0.95;0.88;;;;;;;15.91;86.56;99146.63;4134258;28;20217;-46
2023/07/18 01:29:01;;;;;;;2.28;0.90;;;;;;;15.87;86.81;99155.72;4141948;28;20233;-47
2023/07/18 01:31:03;;;;;;;1.20;0.90;;;;;;;15.88;86.78;99151.88;4142156;28;20220;-46
2023/07/18 01:33:06;;;;;;;3.60;1.00;;;;;;;15.87;87.07;99156.56;4135258;28;20692;-46
2023/07/18 01:35:08;;;;;;;3.65;1.02;;;;;;;15.82;87.31;99147.44;4138533;28;20213;-46
2023/07/18 01:37:10;;;;;;;1.23;0.95;;;;;;;15.82;87.24;99147.44;4135928;28;20214;-47
2023/07/18 01:39:12;;;;;;;2.42;1.08;;;;;;;15.82;87.13;99144.69;4149178;28;20263;-47
2023/07/18 01:41:14;;;;;;;1.58;0.90;;;;;;;15.81;87.65;99135.56;4149207;28;20212;-47
2023/07/18 01:43:16;;;;;;;1.20;1.00;;;;;;;15.80;88.08;99141.34;4142037;28;20603;-47
2023/07/18 01:45:19;;;;;;;1.13;0.80;;;;;;;15.79;88.33;99143.28;4141962;28;20527;-46
2023/07/18 01:47:21;;;;;;;1.70;1.38;;;;;;;15.75;88.92;99142.16;4150199;28;20204;-47
2023/07/18 01:49:23;;;;;;;3.35;1.10;;;;;;;15.64;88.93;99134.91;4141634;28;20216;-46
2023/07/18 01:51:24;;;;;;;1.02;0.90;;;;;;;15.58;88.98;99132.41;4142156;28;20206;-46
2023/07/18 01:53:27;;;;;;;1.48;1.15;;;;;;;15.56;89.20;99131.84;4132852;28;20738;-47
2023/07/18 01:55:29;;;;;;;1.77;1.00;;;;;;;15.54;89.09;99126.59;4136550;28;20659;-47
2023/07/18 01:57:32;;;;;;;2.25;1.25;;;;;;;15.56;89.51;99121.63;4141516;28;20240;-48
2023/07/18 01:59:39;;;;;;;1.35;0.82;;;;;;;15.52;89.70;99122.44;4143561;28;20213;-47
2023/07/18 02:01:41;;;;;;;2.05;1.15;;;;;;;15.53;89.70;99127.69;4135371;28;20200;-46
2023/07/18 02:03:43;;;;;;;1.23;0.88;;;;;;;15.56;89.59;99129.91;4134242;28;20276;-47
2023/07/18 02:05:45;;;;;;;2.50;1.20;;;;;;;15.52;90.09;99126.03;4134793;28;20213;-47
2023/07/18 02:07:47;;;;;;;1.48;1.10;;;;;;;15.46;90.34;99124.34;4133550;28;20241;-46
2023/07/18 02:09:49;;;;;;;1.58;0.90;;;;;;;15.42;90.21;99120.44;4138094;28;20217;-47
2023/07/18 02:11:51;;;;;;;1.33;1.02;;;;;;;15.37;90.34;99123.16;4134500;28;20217;-48
2023/07/18 02:13:53;;;;;;;1.15;0.88;;;;;;;15.38;90.63;99113.81;4143363;28;20251;-47
2023/07/18 02:15:54;;;;;;;1.05;0.90;;;;;;;15.37;90.59;99123.16;4140412;28;20415;-47
2023/07/18 02:17:56;;;;;;;1.30;0.95;;;;;;;15.35;90.80;99119.84;4136503;28;20324;-46
2023/07/18 02:19:58;;;;;;;2.22;1.08;;;;;;;15.35;90.73;99124.53;4140897;28;20239;-47
2023/07/18 02:22:00;;;;;;;1.95;1.15;;;;;;;15.32;90.97;99117.63;4147496;28;20205;-47
2023/07/18 02:24:03;;;;;;;3.90;1.33;;;;;;;15.39;91.07;99115.47;4141050;28;20615;-47
2023/07/18 02:26:05;;;;;;;7.15;1.40;;;;;;;15.37;90.98;99112.13;4135844;28;20217;-47
2023/07/18 02:28:07;;;;;;;1.10;0.90;;;;;;;15.35;90.98;99114.31;4141651;28;20312;-47
2023/07/18 02:30:11;;;;;;;1.58;1.00;;;;;;;15.35;91.11;99108.81;4150893;28;20995;-46
2023/07/18 02:32:16;;;;;;;0.90;0.80;;;;;;;15.27;91.10;99112.03;4136822;28;20216;-46
2023/07/18 02:34:19;;;;;;;1.60;0.90;;;;;;;15.30;91.34;99103.22;4133951;28;20683;-47
2023/07/18 02:36:21;;;;;;;1.77;0.98;;;;;;;15.26;91.17;99115.91;4142431;28;20221;-48
2023/07/18 02:38:23;;;;;;;1.42;0.90;;;;;;;15.18;91.31;99108.13;4140964;28;20287;-47
2023/07/18 02:40:25;;;;;;;5.72;1.10;;;;;;;15.18;91.47;99108.13;4141861;28;20217;-46
2023/07/18 02:42:27;;;;;;;1.98;0.90;;;;;;;15.10;91.80;99103.09;4135614;28;20213;-46
2023/07/18 02:44:28;;;;;;;2.67;1.30;;;;;;;15.10;92.08;99105.84;4138111;28;20284;-48
2023/07/18 02:46:30;;;;;;;1.20;1.10;;;;;;;15.06;91.82;99104.72;4135915;28;20209;-47
2023/07/18 02:48:32;;;;;;;1.55;0.93;;;;;;;15.02;91.98;99109.09;4136088;28;20221;-47
2023/07/18 02:50:35;;;;;;;2.17;0.93;;;;;;;15.04;92.04;99106.09;4152744;28;20209;-46
2023/07/18 02:52:38;;;;;;;1.77;0.85;;;;;;;15.06;91.85;99104.72;4128655;28;20301;-48
2023/07/18 02:54:40;;;;;;;2.78;1.17;;;;;;;15.07;92.04;99100.88;4152692;28;20235;-47
2023/07/18 02:56:41;;;;;;;1.88;1.00;;;;;;;14.97;92.06;99111.81;4138982;28;20209;-47
2023/07/18 02:58:43;;;;;;;2.42;0.95;;;;;;;14.96;92.30;99110.16;4144020;28;20229;-48
2023/07/18 03:00:45;;;;;;;1.90;1.00;;;;;;;14.86;92.22;99112.84;4143855;28;20239;-48
2023/07/18 03:02:48;;;;;;;3.70;1.45;;;;;;;14.86;92.39;99109.25;4142662;28;20213;-47
2023/07/18 03:04:50;;;;;;;2.63;1.23;;;;;;;14.85;92.56;99113.09;4142573;28;20229;-47
2023/07/18 03:06:53;;;;;;;6.97;1.20;;;;;;;14.83;92.66;99116.09;4144983;28;20214;-47
2023/07/18 03:08:54;;;;;;;1.00;0.90;;;;;;;14.80;92.73;99113.88;4144071;28;20226;-47
2023/07/18 03:10:56;;;;;;;0.98;0.77;;;;;;;14.75;92.70;99122.09;4138083;28;20209;-47
2023/07/18 03:12:58;;;;;;;1.52;1.00;;;;;;;14.74;92.92;99120.44;4144139;28;20209;-48
2023/07/18 03:15:00;;;;;;;1.98;1.10;;;;;;;14.76;92.86;99122.94;4127990;28;20206;-47
2023/07/18 03:17:02;;;;;;;1.83;1.17;;;;;;;14.76;92.99;99121.00;4145405;28;20216;-47
2023/07/18 03:19:08;;;;;;;1.85;1.40;;;;;;;14.77;93.10;99116.34;4144175;28;20233;-47
2023/07/18 03:21:10;;;;;;;4.28;1.30;;;;;;;14.82;93.28;99116.38;4134718;28;20323;-47
2023/07/18 03:23:11;;;;;;;1.63;1.10;;;;;;;14.72;93.50;99117.13;4143920;28;20205;-47
2023/07/18 03:25:14;;;;;;;2.40;1.20;;;;;;;14.67;93.44;99116.22;4143977;28;20669;-48
2023/07/18 03:27:16;;;;;;;2.15;1.23;;;;;;;14.62;93.56;99114.25;4135860;28;20210;-47
2023/07/18 03:29:18;;;;;;;1.58;1.33;;;;;;;14.52;93.68;99116.94;4143067;28;20217;-47
2023/07/18 03:31:20;;;;;;;1.92;0.90;;;;;;;14.53;93.90;99109.50;4136150;28;20210;-46
2023/07/18 03:33:22;;;;;;;2.40;1.08;;;;;;;14.56;93.84;99108.97;4120057;28;20265;-47
2023/07/18 03:35:24;;;;;;;1.30;1.20;;;;;;;14.52;94.16;99108.66;4144126;28;20209;-47
2023/07/18 03:37:27;;;;;;;1.35;1.13;;;;;;;14.50;94.10;99101.75;4151870;28;20711;-47
2023/07/18 03:39:28;;;;;;;1.42;1.10;;;;;;;14.46;94.35;99109.72;4137025;28;20228;-49
2023/07/18 03:41:30;;;;;;;2.90;1.25;;;;;;;14.37;94.31;99103.00;4135374;28;20205;-47
2023/07/18 03:43:32;;;;;;;1.58;1.40;;;;;;;14.39;94.48;99105.50;4136486;28;20306;-46
2023/07/18 03:45:34;;;;;;;2.13;1.40;;;;;;;14.36;94.65;99115.09;4136009;28;20205;-47
2023/07/18 03:47:37;;;;;;;2.63;1.55;;;;;;;14.34;94.82;99106.28;4124716;28;20234;-49
2023/07/18 03:49:39;;;;;;;1.60;1.10;;;;;;;14.33;94.49;99104.63;4137061;28;20656;-47
2023/07/18 03:51:40;;;;;;;3.55;1.20;;;;;;;14.34;94.45;99106.28;4153398;28;20635;-46
2023/07/18 03:53:43;;;;;;;1.98;1.20;;;;;;;14.30;94.72;99105.13;4144590;28;20241;-47
2023/07/18 03:55:45;;;;;;;2.28;1.35;;;;;;;14.29;94.98;99097.97;4143044;28;20209;-49
2023/07/18 03:57:47;;;;;;;1.20;1.10;;;;;;;14.23;95.05;99104.50;4141039;28;20658;-47
2023/07/18 03:59:49;;;;;;;4.07;1.30;;;;;;;14.23;94.90;99103.69;4136221;28;20212;-47
2023/07/18 04:01:51;;;;;;;2.15;1.50;;;;;;;14.30;94.98;99099.63;4142444;28;20201;-46
2023/07/18 04:03:53;;;;;;;3.50;1.60;;;;;;;14.31;95.15;99093.00;4155270;28;20228;-46
2023/07/18 04:05:55;;;;;;;1.65;1.17;;;;;;;14.31;95.11;99090.25;4136028;28;20213;-46
2023/07/18 04:07:57;;;;;;;2.10;1.35;;;;;;;14.32;95.46;99094.69;4136415;28;20285;-47
2023/07/18 04:09:59;;;;;;;1.73;1.40;;;;;;;14.28;95.29;99096.31;4125798;28;20218;-49
2023/07/18 04:12:01;;;;;;;2.20;1.52;;;;;;;14.26;95.39;99098.50;4134768;28;20229;-47
2023/07/18 04:14:02;;;;;;;2.08;1.33;;;;;;;14.22;95.45;99097.34;4153344;28;20216;-50
2023/07/18 04:16:05;;;;;;;1.65;1.17;;;;;;;14.14;95.38;99095.03;4141631;28;20236;-47
2023/07/18 04:18:07;;;;;;;1.60;1.50;;;;;;;14.16;95.88;99097.53;4136213;28;20234;-48
2023/07/18 04:20:10;;;;;;;4.10;1.30;;;;;;;14.16;96.09;99089.25;4137583;28;20668;-48
2023/07/18 04:22:12;;;;;;;2.50;1.10;;;;;;;14.21;96.50;99090.16;4152252;28;20948;-47
2023/07/18 04:24:13;;;;;;;2.95;1.20;;;;;;;14.22;96.39;99086.31;4149491;28;20403;-48
2023/07/18 04:26:15;;;;;;;1.75;1.38;;;;;;;14.18;96.29;99085.16;4140862;28;20217;-47
2023/07/18 04:28:17;;;;;;;1.20;1.10;;;;;;;14.16;96.31;99086.50;4136322;28;20226;-49
2023/07/18 04:30:19;;;;;;;1.23;1.10;;;;;;;14.19;96.25;99086.00;4123827;28;20245;-47
2023/07/18 04:32:20;;;;;;;1.75;1.20;;;;;;;14.26;96.35;99086.63;4138538;28;20209;-47
2023/07/18 04:34:24;;;;;;;2.55;1.48;;;;;;;14.28;96.51;99090.78;4141906;28;20203;-47
2023/07/18 04:36:25;;;;;;;4.90;1.30;;;;;;;14.30;96.32;99093.28;4135078;28;20699;-47
2023/07/18 04:38:27;;;;;;;2.63;1.38;;;;;;;14.30;96.56;99087.78;4133619;28;20236;-46
2023/07/18 04:40:29;;;;;;;3.80;1.10;;;;;;;14.25;96.47;99082.22;4140742;28;20209;-46
2023/07/18 04:42:30;;;;;;;1.77;1.42;;;;;;;14.30;96.46;99080.34;4134600;28;20212;-48
2023/07/18 04:44:33;;;;;;;2.50;1.17;;;;;;;14.33;96.48;99077.09;4138092;28;20605;-47
2023/07/18 04:46:34;;;;;;;2.25;1.60;;;;;;;14.40;96.29;99080.47;4138542;28;20580;-47
2023/07/18 04:48:36;;;;;;;2.75;1.98;;;;;;;14.27;96.92;99078.13;4134119;28;20233;-47
2023/07/18 04:50:39;;;;;;;3.03;1.67;;;;;;;14.29;97.02;99078.69;4141052;28;20591;-49
2023/07/18 04:52:40;;;;;;;2.30;1.88;;;;;;;14.31;97.12;99073.75;4149286;28;20624;-46
2023/07/18 04:54:42;;;;;;;2.05;1.83;;;;;;;14.34;96.89;99073.25;4149982;28;20196;-48
2023/07/18 04:56:45;;;;;;;2.58;1.52;;;;;;;14.32;97.30;99075.44;4136476;28;20216;-46
2023/07/18 04:58:46;;;;;;;2.92;1.95;;;;;;;14.41;97.40;99068.34;4135732;28;20280;-46
2023/07/18 05:00:48;;;;;;;5.03;2.22;;;;;;;13.97;99.17;99072.25;4138563;28;20205;-47
2023/07/18 05:02:50;;;;;;;5.22;2.03;;;;;;;14.10;98.93;99071.84;4150369;28;20213;-47
2023/07/18 05:04:52;;;;;;;3.97;1.80;;;;;;;14.02;99.59;99066.81;4140415;28;20252;-47
2023/07/18 05:06:53;;;;;;;3.88;2.25;;;;;;;13.91;100.00;99070.53;4136411;28;20208;-47
2023/07/18 05:08:55;;;;;;;2.35;1.40;;;;;;;14.19;99.08;99069.50;4138936;28;20236;-47
2023/07/18 05:11:01;;;;;;;2.65;1.52;;;;;;;14.22;99.05;99072.56;4122854;28;20209;-47
2023/07/18 05:13:03;;;;;;;2.80;2.05;;;;;;;14.23;98.97;99065.97;4134413;28;20222;-47
2023/07/18 05:15:05;;;;;;;4.05;2.25;;;;;;;13.89;100.00;99063.66;4148039;28;20233;-45
2023/07/18 05:17:07;;;;;;;4.18;2.08;;;;;;;14.10;100.00;99060.84;4133106;28;20679;-47
2023/07/18 05:19:09;;;;;;;2.60;1.95;;;;;;;14.17;100.00;99061.47;4136723;28;20724;-48
2023/07/18 05:21:11;;;;;;;3.58;1.95;;;;;;;14.33;99.52;99060.56;4133118;28;20324;-47
2023/07/18 05:23:13;;;;;;;2.13;1.55;;;;;;;14.45;98.74;99064.00;4140309;28;20197;-48
2023/07/18 05:25:17;;;;;;;3.28;1.88;;;;;;;14.62;98.00;99059.16;4147118;28;20627;-47
2023/07/18 05:27:18;;;;;;;3.58;1.48;;;;;;;14.70;97.37;99064.19;4135844;28;20209;-46
2023/07/18 05:29:20;;;;;;;2.08;1.60;;;;;;;14.82;96.94;99059.34;4139841;28;20245;-47
2023/07/18 05:31:22;;;;;;;2.78;1.42;;;;;;;14.92;96.38;99064.94;4141127;28;20218;-46
2023/07/18 05:33:25;;;;;;;2.90;2.05;;;;;;;15.04;96.05;99068.31;4135095;28;20252;-47
2023/07/18 05:35:30;;;;;;;1.60;1.50;;;;;;;15.17;96.88;99064.28;4135911;28;20247;-46
2023/07/18 05:37:32;;;;;;;3.53;2.03;;;;;;;15.39;100.00;99065.81;4142534;28;20616;-46
2023/07/18 05:39:33;;;;;;;4.00;1.50;;;;;;;15.58;100.00;99069.78;4123967;28;20272;-46
2023/07/18 05:41:36;;;;;;;1.77;1.67;;;;;;;15.78;99.16;99060.75;4133871;28;20212;-48
2023/07/18 05:43:44;;;;;;;2.03;1.83;;;;;;;15.96;97.33;99061.09;4124603;28;20297;-46
2023/07/18 05:45:45;;;;;;;2.78;1.60;;;;;;;16.23;96.08;99067.22;4137750;28;20228;-46
2023/07/18 05:47:47;;;;;;;2.47;1.60;;;;;;;16.35;94.50;99064.25;4140077;28;20244;-47
2023/07/18 05:49:49;;;;;;;2.78;2.20;;;;;;;16.45;94.69;99054.06;4136777;28;20209;-46
2023/07/18 05:51:51;;;;;;;2.08;1.88;;;;;;;16.61;94.00;99057.66;4135405;28;20679;-46
2023/07/18 05:53:57;;;;;;;1.95;1.48;;;;;;;16.89;92.61;99049.63;4141951;28;20205;-46
2023/07/18 05:55:59;;;;;;;4.75;2.13;;;;;;;17.11;90.89;99058.47;4131323;28;20280;-47
2023/07/18 05:58:01;;;;;;;3.30;1.98;;;;;;;17.16;91.49;99044.63;4119630;28;20296;-49
2023/07/18 06:00:05;;;;;;;5.60;2.00;;;;;;;17.39;89.65;99055.13;4135107;28;20217;-47
2023/07/18 06:02:08;;;;;;;13.90;1.95;;;;;;;17.50;88.72;99051.19;4135702;28;20696;-49
2023/07/18 06:04:10;;;;;;;2.97;2.40;;;;;;;17.66;86.81;99041.75;4135211;28;20213;-49
2023/07/18 06:06:13;;;;;;;3.25;2.45;;;;;;;17.77;85.41;99043.34;4135227;28;20595;-49
2023/07/18 06:08:14;;;;;;;4.85;2.15;;;;;;;17.90;84.82;99049.13;4130016;28;20326;-48
2023/07/18 06:10:16;;;;;;;2.75;2.00;;;;;;;17.99;85.88;99046.59;4133757;28;20205;-48
2023/07/18 06:12:18;;;;;;;2.72;2.35;;;;;;;18.13;84.75;99044.84;4133381;28;20213;-49
2023/07/18 06:14:19;;;;;;;5.28;1.80;;;;;;;18.21;84.90;99042.31;4130308;28;20249;-49
2023/07/18 06:16:21;;;;;;;1.70;1.60;;;;;;;18.37;83.88;99040.28;4137668;28;20263;-47
2023/07/18 06:18:23;;;;;;;2.40;1.60;;;;;;;18.46;82.52;99039.38;4137620;28;20716;-48
2023/07/18 06:20:25;;;;;;;4.57;2.75;;;;;;;18.54;83.40;99030.47;4138490;28;20209;-48
2023/07/18 06:22:26;;;;;;;4.82;1.60;;;;;;;18.58;84.06;99033.50;4137268;28;20244;-49
2023/07/18 06:24:28;;;;;;;3.95;2.90;;;;;;;18.21;83.26;99035.94;4137996;28;20276;-48
2023/07/18 06:26:30;;;;;;;5.55;2.28;;;;;;;18.36;83.38;99039.47;4136896;28;20224;-47
2023/07/18 06:28:32;;;;;;;3.30;2.55;;;;;;;18.46;83.34;99033.84;4128210;28;20244;-47
2023/07/18 06:30:35;;;;;;;2.97;2.50;;;;;;;18.44;82.75;99032.50;4155159;28;20293;-47
2023/07/18 06:32:39;;;;;;;3.42;2.55;;;;;;;18.37;82.84;99034.72;4143615;28;21014;-47
2023/07/18 06:34:43;;;;;;;2.65;2.13;;;;;;;18.80;82.32;99028.31;4153632;28;20229;-47
2023/07/18 06:36:45;;;;;;;3.67;2.20;;;;;;;19.04;81.69;99034.75;4137228;28;20678;-48
2023/07/18 06:38:48;;;;;;;4.97;2.17;;;;;;;19.28;80.75;99035.63;4143292;28;20770;-46
2023/07/18 06:40:50;;;;;;;7.00;2.67;;;;;;;19.48;79.84;99024.31;4138967;28;20241;-47
2023/07/18 06:42:52;;;;;;;6.93;2.85;;;;;;;19.67;79.35;99033.53;4137638;28;20731;-46
2023/07/18 06:44:53;;;;;;;2.70;2.42;;;;;;;19.79;79.35;99033.94;4143541;28;20221;-47
2023/07/18 06:46:55;;;;;;;5.43;2.35;;;;;;;19.69;76.27;99028.50;4141936;28;20707;-47
2023/07/18 06:48:57;;;;;;;2.17;1.98;;;;;;;20.06;77.03;99031.38;4138090;28;20730;-47
2023/07/18 06:51:02;;;;;;;4.75;2.30;;;;;;;20.22;74.30;99030.03;4128810;28;20285;-46
2023/07/18 06:53:04;;;;;;;8.18;2.67;;;;;;;20.24;73.32;99030.59;4146042;28;20588;-47
2023/07/18 06:55:10;;;;;;;4.05;2.53;;;;;;;20.14;75.53;99030.72;4140913;28;20683;-47
2023/07/18 06:57:18;;;;;;;7.82;2.92;;;;;;;20.20;69.51;99029.53;4140593;28;20312;-46
2023/07/18 06:59:20;;;;;;;6.03;1.85;;;;;;;20.25;70.05;99023.91;4142163;28;20214;-47
2023/07/18 07:01:23;;;;;;;5.93;2.72;;;;;;;20.31;69.68;99019.91;4129693;28;20209;-47
2023/07/18 07:03:25;;;;;;;10.90;3.72;;;;;;;20.37;67.19;99027.06;4144598;28;20201;-46
2023/07/18 07:05:40;;;;;;;5.63;2.50;;;;;;;20.73;67.98;99019.78;4123262;28;20755;-45
2023/07/18 07:07:42;;;;;;;7.10;2.60;;;;;;;20.96;66.63;99013.28;4138388;28;20836;-46
2023/07/18 07:09:44;;;;;;;2.85;2.05;;;;;;;20.67;64.00;99015.44;4139616;28;20217;-45
2023/07/18 07:11:46;;;;;;;3.75;2.42;;;;;;;20.72;64.83;99007.81;4139528;28;20205;-45
2023/07/18 07:13:48;;;;;;;2.15;1.55;;;;;;;21.02;64.21;99009.28;4143827;28;20667;-45
2023/07/18 07:15:52;;;;;;;4.63;2.40;;;;;;;21.14;64.35;99004.91;4139423;28;20264;-45
2023/07/18 07:17:54;;;;;;;4.43;2.00;;;;;;;21.07;61.69;99014.78;4141866;28;20308;-45
2023/07/18 07:19:56;;;;;;;3.08;2.22;;;;;;;21.28;61.31;99013.25;4136572;28;20201;-44
2023/07/18 07:21:58;;;;;;;2.78;2.17;;;;;;;21.17;60.64;99011.81;4138214;28;20205;-45
2023/07/18 07:24:00;;;;;;;4.40;2.45;;;;;;;21.20;60.75;99009.25;4142380;28;20215;-45
2023/07/18 07:26:05;;;;;;;2.78;2.10;;;;;;;21.21;60.06;99010.91;4138300;28;20225;-47
2023/07/18 07:28:08;;;;;;;4.13;3.35;;;;;;;21.45;59.83;98999.59;4144218;28;20228;-44
2023/07/18 07:30:17;;;;;;;7.60;2.83;;;;;;;21.44;60.39;98992.38;4138693;28;20205;-45
2023/07/18 07:32:19;;;;;;;5.75;1.90;;;;;;;21.78;60.18;98990.00;4138112;28;20244;-46
2023/07/18 07:34:23;;;;;;;3.10;1.65;;;;;;;21.56;59.00;98979.56;4141544;28;20207;-48
2023/07/18 07:36:25;;;;;;;6.45;1.58;;;;;;;22.12;59.83;98976.44;4135457;28;20287;-45
2023/07/18 07:38:34;;;;;;;2.83;1.70;;;;;;;21.96;57.00;98975.09;4139220;28;20755;-45
2023/07/18 07:40:39;;;;;;;2.97;1.88;;;;;;;21.86;57.04;98978.97;4143116;28;20612;-46
2023/07/18 07:42:46;;;;;;;2.17;1.63;;;;;;;21.97;56.67;98979.56;4138413;28;20764;-46
2023/07/18 07:44:48;;;;;;;3.90;1.70;;;;;;;21.71;56.74;98981.25;4140279;28;20207;-46
2023/07/18 07:46:50;;;;;;;2.53;1.70;;;;;;;21.58;56.25;98979.25;4138356;28;20202;-46
2023/07/18 07:49:01;;;;;;;4.47;1.55;;;;;;;21.82;56.79;98977.09;4128565;28;20730;-46
2023/07/18 07:51:16;;;;;;;4.95;1.88;;;;;;;22.04;56.87;98975.19;4128405;28;20244;-46
2023/07/18 07:53:19;;;;;;;2.38;1.88;;;;;;;22.19;55.26;98976.81;4138394;28;20212;-45
2023/07/18 07:55:27;;;;;;;2.30;1.70;;;;;;;22.27;56.35;98970.50;4137491;28;20248;-46
2023/07/18 07:57:29;;;;;;;4.30;1.92;;;;;;;22.51;55.28;98980.25;4144753;28;20605;-45
2023/07/18 07:59:33;;;;;;;2.63;1.45;;;;;;;22.54;54.74;98973.22;4141146;28;20324;-45
2023/07/18 08:01:35;;;;;;;4.40;1.92;;;;;;;22.61;55.31;98968.00;4137890;28;20280;-45
2023/07/18 08:03:38;;;;;;;3.53;2.17;;;;;;;22.88;54.48;98968.72;4139481;28;20247;-46
2023/07/18 08:05:41;;;;;;;1.80;1.60;;;;;;;23.05;54.53;98967.97;4151010;28;20220;-45
2023/07/18 08:07:43;;;;;;;1.30;1.20;;;;;;;23.28;54.35;98964.00;4142750;28;20268;-44
2023/07/18 08:09:57;;;;;;;2.45;1.52;;;;;;;22.95;52.84;98969.06;4142781;28;20291;-45
2023/07/18 08:11:59;;;;;;;4.95;2.15;;;;;;;22.78;52.62;98962.56;4138436;28;20672;-45
2023/07/18 08:14:02;;;;;;;1.73;1.58;;;;;;;22.32;52.68;98964.81;4143788;28;20200;-45
2023/07/18 08:16:05;;;;;;;1.67;1.50;;;;;;;22.57;54.30;98962.25;4155010;28;20627;-46
2023/07/18 08:18:07;;;;;;;2.75;1.52;;;;;;;22.50;53.42;98955.47;4154031;28;20278;-45
2023/07/18 08:20:10;;;;;;;1.95;1.77;;;;;;;22.87;53.44;98949.47;4136745;28;20338;-45
2023/07/18 08:22:12;;;;;;;2.97;1.58;;;;;;;23.34;53.26;98951.56;4141471;28;20216;-45
2023/07/18 08:24:13;;;;;;;2.10;1.30;;;;;;;23.22;52.43;98954.97;4121038;28;20237;-45
2023/07/18 08:26:15;;;;;;;2.17;1.40;;;;;;;23.26;51.40;98952.34;4139265;28;20480;-46
2023/07/18 08:28:17;;;;;;;2.47;1.65;;;;;;;22.96;51.91;98964.31;4132132;28;20240;-45
2023/07/18 08:30:19;;;;;;;2.22;1.17;;;;;;;22.76;51.49;98956.47;4129755;28;20209;-47
2023/07/18 08:32:21;;;;;;;3.58;1.80;;;;;;;22.71;51.67;98946.25;4137670;28;20204;-46
2023/07/18 08:34:23;;;;;;;5.18;1.58;;;;;;;22.87;51.24;98943.88;4138599;28;20239;-46
2023/07/18 08:36:25;;;;;;;3.53;1.20;;;;;;;23.33;51.14;98939.56;4142056;28;20197;-45
2023/07/18 08:38:27;;;;;;;4.95;1.58;;;;;;;23.53;50.97;98924.19;4143205;28;20239;-46
2023/07/18 08:40:29;;;;;;;7.07;1.60;;;;;;;23.64;50.11;98922.75;4131204;28;20244;-45
2023/07/18 08:42:33;;;;;;;3.50;2.10;;;;;;;23.99;50.25;98925.31;4142753;28;20251;-45
2023/07/18 08:44:35;;;;;;;2.50;1.20;;;;;;;24.03;48.90;98901.97;4143118;28;20663;-45
2023/07/18 08:46:42;;;;;;;7.95;1.05;;;;;;;24.20;50.22;98901.94;4137632;28;20723;-46
2023/07/18 08:48:45;;;;;;;2.45;1.20;;;;;;;24.31;47.75;98903.28;4135431;28;20221;-45
2023/07/18 08:50:47;;;;;;;2.55;1.63;;;;;;;24.68;48.29;98902.63;4137334;28;20229;-46
2023/07/18 08:52:49;;;;;;;3.83;1.20;;;;;;;24.60;46.30;98892.22;4135629;28;20722;-45
2023/07/18 08:54:50;;;;;;;3.28;1.20;;;;;;;25.12;47.04;98890.13;4138773;28;20259;-45
2023/07/18 08:56:52;;;;;;;2.42;1.38;;;;;;;24.68;47.39;98901.78;4141141;28;20690;-47
2023/07/18 08:58:55;;;;;;;2.72;1.42;;;;;;;25.02;47.45;98894.13;4136611;28;20287;-45
2023/07/18 09:00:57;;;;;;;2.40;1.45;;;;;;;25.17;47.17;98893.56;4120472;28;20609;-46
2023/07/18 09:02:59;;;;;;;3.42;1.58;;;;;;;25.12;46.08;98879.72;4142618;28;20269;-45
2023/07/18 09:05:01;;;;;;;2.95;1.35;;;;;;;25.39;44.39;98868.09;4137099;28;20213;-45
2023/07/18 09:07:03;;;;;;;2.22;1.40;;;;;;;25.09;45.80;98859.97;4137043;28;20239;-46
2023/07/18 09:09:14;;;;;;;4.05;1.80;;;;;;;25.38;44.78;98854.41;4142903;28;20282;-46
2023/07/18 09:11:19;;;;;;;5.47;1.30;;;;;;;25.18;45.49;98855.13;4127556;28;20228;-45
2023/07/18 09:13:25;;;;;;;2.25;1.30;;;;;;;25.28;45.99;98855.63;4138050;28;20296;-46
2023/07/18 09:15:26;;;;;;;2.15;1.40;;;;;;;25.16;45.57;98863.91;4151967;28;20647;-45
2023/07/18 09:17:28;;;;;;;2.33;1.10;;;;;;;24.91;46.01;98856.41;4143488;28;20201;-46
2023/07/18 09:19:43;;;;;;;6.57;1.50;;;;;;;25.33;45.72;98871.44;4135736;28;20256;-46
2023/07/18 09:21:45;;;;;;;2.22;1.42;;;;;;;25.22;45.35;98879.38;4132900;28;20728;-45
2023/07/18 09:23:47;;;;;;;1.73;1.27;;;;;;;24.81;45.16;98884.75;4132833;28;20233;-45
2023/07/18 09:25:49;;;;;;;2.60;1.38;;;;;;;25.37;46.61;98900.41;4134125;28;20320;-45
2023/07/18 09:27:55;;;;;;;1.83;1.42;;;;;;;25.84;46.18;98902.78;4138204;28;20304;-48
2023/07/18 09:29:58;;;;;;;2.25;1.10;;;;;;;26.16;44.41;98899.28;4134033;28;20209;-45
2023/07/18 09:32:00;;;;;;;2.13;1.20;;;;;;;25.99;43.32;98916.25;4135246;28;20217;-47
2023/07/18 09:34:12;;;;;;;2.45;1.52;;;;;;;25.86;44.09;98916.47;4132862;28;20968;-46
2023/07/18 09:36:17;;;;;;;2.28;1.60;;;;;;;26.14;44.81;98914.81;4148583;28;20836;-45
2023/07/18 09:38:19;;;;;;;2.45;1.13;;;;;;;25.75;44.52;98910.44;4133009;28;20647;-46